sensor_id;sensor_type;location;lat;lon;timestamp;pressure;altitude;pressure_sealevel;temperature;humidity
71907;BME280;59781;52.090;5.030;2023-03-07T00:01:36;99790.16;;;4.94;100.00
71907;BME280;59781;52.090;5.030;2023-03-07T00:04:02;99795.28;;;4.87;100.00
71907;BME280;59781;52.090;5.030;2023-03-07T00:06:28;99794.19;;;5.06;100.00
71907;BME280;59781;52.090;5.030;2023-03-07T00:08:57;99799.81;;;4.95;100.00
71907;BME280;59781;52.090;5.030;2023-03-07T00:11:25;99789.72;;;4.72;100.00
71907;BME280;59781;52.090;5.030;2023-03-07T00:13:53;99792.63;;;4.87;100.00
71907;BME280;59781;52.090;5.030;2023-03-07T00:16:21;99783.84;;;5.03;100.00
71907;BME280;59781;52.090;5.030;2023-03-07T00:18:48;99788.72;;;4.73;100.00
71907;BME280;59781;52.090;5.030;2023-03-07T00:21:17;99788.34;;;5.02;100.00
71907;BME280;59781;52.090;5.030;2023-03-07T00:23:45;99794.19;;;5.06;100.00
71907;BME280;59781;52.090;5.030;2023-03-07T00:26:14;99788.84;;;5.06;100.00
71907;BME280;59781;52.090;5.030;2023-03-07T00:28:43;99779.75;;;5.25;100.00
71907;BME280;59781;52.090;5.030;2023-03-07T00:31:11;99792.00;;;4.93;100.00
71907;BME280;59781;52.090;5.030;2023-03-07T00:33:38;99786.28;;;5.38;100.00
71907;BME280;59781;52.090;5.030;2023-03-07T00:36:15;99777.13;;;5.57;100.00
71907;BME280;59781;52.090;5.030;2023-03-07T00:38:43;99780.09;;;5.38;100.00
71907;BME280;59781;52.090;5.030;2023-03-07T00:41:15;99783.31;;;4.99;100.00
71907;BME280;59781;52.090;5.030;2023-03-07T00:43:44;99787.19;;;4.71;100.00
71907;BME280;59781;52.090;5.030;2023-03-07T00:46:12;99778.16;;;4.98;100.00
71907;BME280;59781;52.090;5.030;2023-03-07T00:48:39;99771.00;;;5.06;100.00
71907;BME280;59781;52.090;5.030;2023-03-07T00:51:08;99775.00;;;5.02;100.00
71907;BME280;59781;52.090;5.030;2023-03-07T00:53:37;99768.50;;;5.05;100.00
71907;BME280;59781;52.090;5.030;2023-03-07T00:58:34;99763.38;;;5.19;100.00
71907;BME280;59781;52.090;5.030;2023-03-07T01:01:03;99772.66;;;4.99;100.00
71907;BME280;59781;52.090;5.030;2023-03-07T01:03:32;99765.84;;;5.05;100.00
71907;BME280;59781;52.090;5.030;2023-03-07T01:06:04;99775.00;;;5.02;100.00
71907;BME280;59781;52.090;5.030;2023-03-07T01:08:32;99778.66;;;5.01;100.00
71907;BME280;59781;52.090;5.030;2023-03-07T01:11:00;99778.06;;;4.81;100.00
71907;BME280;59781;52.090;5.030;2023-03-07T01:13:28;99779.53;;;4.68;100.00
71907;BME280;59781;52.090;5.030;2023-03-07T01:16:26;99781.97;;;4.53;100.00
71907;BME280;59781;52.090;5.030;2023-03-07T01:18:56;99777.13;;;4.56;100.00
71907;BME280;59781;52.090;5.030;2023-03-07T01:21:27;99761.97;;;4.57;100.00
71907;BME280;59781;52.090;5.030;2023-03-07T01:24:05;99762.06;;;4.73;100.00
71907;BME280;59781;52.090;5.030;2023-03-07T01:26:33;99759.81;;;4.52;100.00
71907;BME280;59781;52.090;5.030;2023-03-07T01:29:02;99756.91;;;4.46;100.00
71907;BME280;59781;52.090;5.030;2023-03-07T01:31:32;99762.56;;;4.43;100.00
71907;BME280;59781;52.090;5.030;2023-03-07T01:34:00;99754.19;;;4.72;100.00
71907;BME280;59781;52.090;5.030;2023-03-07T01:36:31;99749.91;;;4.45;100.00
71907;BME280;59781;52.090;5.030;2023-03-07T01:39:15;99743.22;;;4.41;100.00
71907;BME280;59781;52.090;5.030;2023-03-07T01:41:47;99747.94;;;4.47;100.00
71907;BME280;59781;52.090;5.030;2023-03-07T01:44:22;99743.91;;;4.43;100.00
71907;BME280;59781;52.090;5.030;2023-03-07T01:46:59;99747.38;;;4.35;100.00
71907;BME280;59781;52.090;5.030;2023-03-07T01:49:40;99743.31;;;4.31;100.00
71907;BME280;59781;52.090;5.030;2023-03-07T01:54:48;99740.25;;;4.44;100.00
71907;BME280;59781;52.090;5.030;2023-03-07T01:57:22;99737.69;;;4.34;100.00
71907;BME280;59781;52.090;5.030;2023-03-07T02:00:02;99737.94;;;4.49;100.00
71907;BME280;59781;52.090;5.030;2023-03-07T02:02:41;99735.03;;;4.34;100.00
71907;BME280;59781;52.090;5.030;2023-03-07T02:05:28;99733.59;;;4.22;100.00
71907;BME280;59781;52.090;5.030;2023-03-07T02:08:01;99728.34;;;4.30;100.00
71907;BME280;59781;52.090;5.030;2023-03-07T02:10:32;99732.13;;;4.53;100.00
71907;BME280;59781;52.090;5.030;2023-03-07T02:12:59;99729.16;;;4.56;100.00
71907;BME280;59781;52.090;5.030;2023-03-07T02:15:25;99713.69;;;4.68;100.00
71907;BME280;59781;52.090;5.030;2023-03-07T02:17:52;99716.97;;;4.54;100.00
71907;BME280;59781;52.090;5.030;2023-03-07T02:26:49;99711.94;;;4.43;100.00
71907;BME280;59781;52.090;5.030;2023-03-07T02:29:18;99704.22;;;4.74;100.00
71907;BME280;59781;52.090;5.030;2023-03-07T02:31:46;99692.84;;;4.72;100.00
71907;BME280;59781;52.090;5.030;2023-03-07T02:34:26;99694.56;;;4.73;100.00
71907;BME280;59781;52.090;5.030;2023-03-07T02:37:28;99691.56;;;4.76;100.00
71907;BME280;59781;52.090;5.030;2023-03-07T02:40:02;99693.56;;;4.90;100.00
71907;BME280;59781;52.090;5.030;2023-03-07T02:42:34;99691.06;;;4.88;100.00
71907;BME280;59781;52.090;5.030;2023-03-07T02:45:13;99687.59;;;4.96;100.00
71907;BME280;59781;52.090;5.030;2023-03-07T02:47:44;99691.59;;;5.00;100.00
71907;BME280;59781;52.090;5.030;2023-03-07T02:50:14;99693.91;;;4.87;100.00
71907;BME280;59781;52.090;5.030;2023-03-07T02:52:43;99700.91;;;4.88;100.00
71907;BME280;59781;52.090;5.030;2023-03-07T02:55:10;99689.38;;;4.79;100.00
71907;BME280;59781;52.090;5.030;2023-03-07T02:57:40;99697.66;;;5.18;100.00
71907;BME280;59781;52.090;5.030;2023-03-07T03:00:07;99685.72;;;4.80;100.00
71907;BME280;59781;52.090;5.030;2023-03-07T03:02:35;99692.44;;;5.01;100.00
71907;BME280;59781;52.090;5.030;2023-03-07T03:05:00;99687.38;;;4.81;100.00
71907;BME280;59781;52.090;5.030;2023-03-07T03:07:26;99681.78;;;4.93;100.00
71907;BME280;59781;52.090;5.030;2023-03-07T03:09:52;99682.59;;;4.93;100.00
71907;BME280;59781;52.090;5.030;2023-03-07T03:12:18;99673.91;;;4.91;100.00
71907;BME280;59781;52.090;5.030;2023-03-07T03:14:44;99676.03;;;4.79;100.00
71907;BME280;59781;52.090;5.030;2023-03-07T03:17:10;99670.38;;;4.74;100.00
71907;BME280;59781;52.090;5.030;2023-03-07T03:19:36;99672.06;;;4.83;100.00
71907;BME280;59781;52.090;5.030;2023-03-07T03:22:01;99677.72;;;4.80;100.00
71907;BME280;59781;52.090;5.030;2023-03-07T03:24:31;99672.53;;;4.79;100.00
71907;BME280;59781;52.090;5.030;2023-03-07T03:26:58;99667.19;;;4.71;100.00
71907;BME280;59781;52.090;5.030;2023-03-07T03:29:25;99662.19;;;4.68;100.00
71907;BME280;59781;52.090;5.030;2023-03-07T03:31:54;99666.06;;;4.89;100.00
71907;BME280;59781;52.090;5.030;2023-03-07T03:34:20;99661.72;;;4.80;100.00
71907;BME280;59781;52.090;5.030;2023-03-07T03:36:48;99658.34;;;4.70;100.00
71907;BME280;59781;52.090;5.030;2023-03-07T03:39:14;99659.59;;;5.08;100.00
71907;BME280;59781;52.090;5.030;2023-03-07T03:41:44;99663.09;;;4.93;100.00
71907;BME280;59781;52.090;5.030;2023-03-07T03:44:10;99655.59;;;4.96;100.00
71907;BME280;59781;52.090;5.030;2023-03-07T03:46:36;99653.41;;;4.83;100.00
71907;BME280;59781;52.090;5.030;2023-03-07T03:49:03;99652.72;;;4.89;100.00
71907;BME280;59781;52.090;5.030;2023-03-07T03:51:30;99656.28;;;5.06;100.00
71907;BME280;59781;52.090;5.030;2023-03-07T03:53:57;99656.47;;;5.21;100.00
71907;BME280;59781;52.090;5.030;2023-03-07T03:56:25;99655.75;;;4.95;100.00
71907;BME280;59781;52.090;5.030;2023-03-07T03:58:54;99662.41;;;4.90;100.00
71907;BME280;59781;52.090;5.030;2023-03-07T04:01:24;99656.59;;;5.19;100.00
71907;BME280;59781;52.090;5.030;2023-03-07T04:03:52;99665.91;;;4.91;100.00
71907;BME280;59781;52.090;5.030;2023-03-07T04:06:25;99653.47;;;5.24;100.00
71907;BME280;59781;52.090;5.030;2023-03-07T04:08:55;99653.53;;;4.74;100.00
71907;BME280;59781;52.090;5.030;2023-03-07T04:11:22;99653.34;;;4.67;100.00
71907;BME280;59781;52.090;5.030;2023-03-07T04:13:50;99647.91;;;5.09;100.00
71907;BME280;59781;52.090;5.030;2023-03-07T04:16:16;99644.25;;;5.18;100.00
71907;BME280;59781;52.090;5.030;2023-03-07T04:18:42;99644.19;;;4.70;100.00
71907;BME280;59781;52.090;5.030;2023-03-07T04:21:08;99657.53;;;4.27;100.00
71907;BME280;59781;52.090;5.030;2023-03-07T04:23:39;99643.13;;;4.12;100.00
71907;BME280;59781;52.090;5.030;2023-03-07T04:26:07;99644.44;;;4.08;100.00
71907;BME280;59781;52.090;5.030;2023-03-07T04:28:40;99642.72;;;4.25;100.00
71907;BME280;59781;52.090;5.030;2023-03-07T04:31:09;99637.91;;;4.37;100.00
71907;BME280;59781;52.090;5.030;2023-03-07T04:33:46;99643.50;;;4.17;100.00
71907;BME280;59781;52.090;5.030;2023-03-07T04:36:14;99642.19;;;4.21;100.00
71907;BME280;59781;52.090;5.030;2023-03-07T04:38:41;99642.66;;;4.17;100.00
71907;BME280;59781;52.090;5.030;2023-03-07T04:41:17;99642.72;;;4.25;100.00
71907;BME280;59781;52.090;5.030;2023-03-07T04:43:46;99635.72;;;4.24;100.00
71907;BME280;59781;52.090;5.030;2023-03-07T04:46:14;99641.34;;;4.21;100.00
71907;BME280;59781;52.090;5.030;2023-03-07T04:48:41;99641.63;;;4.10;100.00
71907;BME280;59781;52.090;5.030;2023-03-07T04:51:07;99634.19;;;4.21;100.00
71907;BME280;59781;52.090;5.030;2023-03-07T04:53:33;99626.72;;;4.25;100.00
71907;BME280;59781;52.090;5.030;2023-03-07T04:56:05;99633.88;;;4.32;100.00
71907;BME280;59781;52.090;5.030;2023-03-07T04:58:33;99635.00;;;4.14;100.00
71907;BME280;59781;52.090;5.030;2023-03-07T05:01:01;99627.09;;;3.70;100.00
71907;BME280;59781;52.090;5.030;2023-03-07T05:03:28;99620.09;;;3.69;100.00
71907;BME280;59781;52.090;5.030;2023-03-07T05:05:55;99633.72;;;3.66;100.00
71907;BME280;59781;52.090;5.030;2023-03-07T05:08:26;99635.34;;;3.85;100.00
71907;BME280;59781;52.090;5.030;2023-03-07T05:10:53;99623.31;;;3.81;100.00
71907;BME280;59781;52.090;5.030;2023-03-07T05:13:19;99635.75;;;3.98;100.00
71907;BME280;59781;52.090;5.030;2023-03-07T05:15:52;99629.03;;;3.86;100.00
71907;BME280;59781;52.090;5.030;2023-03-07T05:18:20;99629.09;;;4.02;100.00
71907;BME280;59781;52.090;5.030;2023-03-07T05:20:47;99629.28;;;3.74;100.00
71907;BME280;59781;52.090;5.030;2023-03-07T05:23:15;99635.66;;;3.56;100.00
71907;BME280;59781;52.090;5.030;2023-03-07T05:25:41;99628.75;;;3.45;100.00
71907;BME280;59781;52.090;5.030;2023-03-07T05:28:07;99637.91;;;3.25;100.00
71907;BME280;59781;52.090;5.030;2023-03-07T05:30:33;99639.91;;;3.05;100.00
71907;BME280;59781;52.090;5.030;2023-03-07T05:32:59;99647.25;;;3.11;100.00
71907;BME280;59781;52.090;5.030;2023-03-07T05:35:25;99640.78;;;3.13;100.00
71907;BME280;59781;52.090;5.030;2023-03-07T05:37:53;99650.88;;;2.74;100.00
71907;BME280;59781;52.090;5.030;2023-03-07T05:40:18;99650.38;;;2.88;100.00
71907;BME280;59781;52.090;5.030;2023-03-07T05:42:46;99648.00;;;3.03;100.00
71907;BME280;59781;52.090;5.030;2023-03-07T05:45:13;99658.56;;;2.77;100.00
71907;BME280;59781;52.090;5.030;2023-03-07T05:47:39;99652.56;;;2.93;100.00
71907;BME280;59781;52.090;5.030;2023-03-07T05:50:08;99663.28;;;2.83;100.00
71907;BME280;59781;52.090;5.030;2023-03-07T05:52:35;99662.19;;;2.58;100.00
71907;BME280;59781;52.090;5.030;2023-03-07T05:55:01;99656.75;;;2.78;100.00
71907;BME280;59781;52.090;5.030;2023-03-07T05:57:26;99660.75;;;2.64;100.00
71907;BME280;59781;52.090;5.030;2023-03-07T05:59:52;99654.53;;;2.73;100.00
71907;BME280;59781;52.090;5.030;2023-03-07T06:02:18;99670.16;;;2.58;100.00
71907;BME280;59781;52.090;5.030;2023-03-07T06:04:43;99666.47;;;2.42;100.00
71907;BME280;59781;52.090;5.030;2023-03-07T06:07:11;99671.84;;;2.32;100.00
71907;BME280;59781;52.090;5.030;2023-03-07T06:09:37;99665.78;;;2.40;100.00
71907;BME280;59781;52.090;5.030;2023-03-07T06:12:03;99671.72;;;2.24;100.00
71907;BME280;59781;52.090;5.030;2023-03-07T06:14:30;99674.06;;;2.37;100.00
71907;BME280;59781;52.090;5.030;2023-03-07T06:16:57;99673.44;;;2.15;100.00
71907;BME280;59781;52.090;5.030;2023-03-07T06:19:23;99677.19;;;2.22;100.00
71907;BME280;59781;52.090;5.030;2023-03-07T06:21:50;99670.44;;;2.00;100.00
71907;BME280;59781;52.090;5.030;2023-03-07T06:24:15;99670.47;;;1.91;100.00
71907;BME280;59781;52.090;5.030;2023-03-07T06:26:42;99670.59;;;1.99;100.00
71907;BME280;59781;52.090;5.030;2023-03-07T06:29:08;99679.03;;;2.12;100.00
71907;BME280;59781;52.090;5.030;2023-03-07T06:31:34;99682.25;;;1.69;100.00
71907;BME280;59781;52.090;5.030;2023-03-07T06:33:59;99691.84;;;1.89;100.00
71907;BME280;59781;52.090;5.030;2023-03-07T06:36:25;99687.63;;;1.87;100.00
71907;BME280;59781;52.090;5.030;2023-03-07T06:38:55;99701.06;;;1.76;100.00
71907;BME280;59781;52.090;5.030;2023-03-07T06:41:22;99696.06;;;1.72;100.00
71907;BME280;59781;52.090;5.030;2023-03-07T06:43:50;99692.88;;;1.69;100.00
71907;BME280;59781;52.090;5.030;2023-03-07T06:46:18;99699.56;;;1.73;100.00
71907;BME280;59781;52.090;5.030;2023-03-07T06:48:45;99692.53;;;1.91;100.00
71907;BME280;59781;52.090;5.030;2023-03-07T06:51:15;99688.59;;;1.95;100.00
71907;BME280;59781;52.090;5.030;2023-03-07T06:53:42;99688.94;;;1.73;100.00
71907;BME280;59781;52.090;5.030;2023-03-07T06:56:08;99690.06;;;1.80;100.00
71907;BME280;59781;52.090;5.030;2023-03-07T06:58:35;99690.63;;;1.55;100.00
71907;BME280;59781;52.090;5.030;2023-03-07T07:01:01;99691.34;;;1.57;100.00
71907;BME280;59781;52.090;5.030;2023-03-07T07:03:28;99694.72;;;1.49;100.00
71907;BME280;59781;52.090;5.030;2023-03-07T07:05:53;99698.75;;;1.43;100.00
71907;BME280;59781;52.090;5.030;2023-03-07T07:08:19;99688.00;;;1.45;100.00
71907;BME280;59781;52.090;5.030;2023-03-07T07:10:45;99688.69;;;1.37;100.00
71907;BME280;59781;52.090;5.030;2023-03-07T07:13:11;99688.16;;;1.24;100.00
71907;BME280;59781;52.090;5.030;2023-03-07T07:15:37;99686.34;;;1.25;100.00
71907;BME280;59781;52.090;5.030;2023-03-07T07:18:04;99691.34;;;1.37;100.00
71907;BME280;59781;52.090;5.030;2023-03-07T07:20:32;99694.72;;;1.30;100.00
71907;BME280;59781;52.090;5.030;2023-03-07T07:22:58;99688.16;;;1.34;100.00
71907;BME280;59781;52.090;5.030;2023-03-07T07:25:24;99683.44;;;1.18;100.00
71907;BME280;59781;52.090;5.030;2023-03-07T07:27:50;99685.50;;;1.14;100.00
71907;BME280;59781;52.090;5.030;2023-03-07T07:30:15;99684.25;;;1.28;100.00
71907;BME280;59781;52.090;5.030;2023-03-07T07:32:41;99682.44;;;1.19;100.00
71907;BME280;59781;52.090;5.030;2023-03-07T07:35:12;99689.56;;;1.28;100.00
71907;BME280;59781;52.090;5.030;2023-03-07T07:37:38;99691.34;;;1.28;100.00
71907;BME280;59781;52.090;5.030;2023-03-07T07:40:05;99687.16;;;1.35;100.00
71907;BME280;59781;52.090;5.030;2023-03-07T07:42:33;99690.06;;;1.80;100.00
71907;BME280;59781;52.090;5.030;2023-03-07T07:45:17;99688.66;;;1.66;100.00
71907;BME280;59781;52.090;5.030;2023-03-07T07:47:43;99702.69;;;1.39;100.00
71907;BME280;59781;52.090;5.030;2023-03-07T07:50:12;99704.63;;;1.37;100.00
71907;BME280;59781;52.090;5.030;2023-03-07T07:52:38;99707.69;;;1.52;100.00
71907;BME280;59781;52.090;5.030;2023-03-07T07:55:04;99711.78;;;2.03;100.00
71907;BME280;59781;52.090;5.030;2023-03-07T07:57:30;99705.69;;;2.30;100.00
71907;BME280;59781;52.090;5.030;2023-03-07T07:59:57;99694.09;;;2.21;100.00
71907;BME280;59781;52.090;5.030;2023-03-07T08:02:23;99706.44;;;2.13;100.00
71907;BME280;59781;52.090;5.030;2023-03-07T08:04:49;99706.38;;;1.76;100.00
71907;BME280;59781;52.090;5.030;2023-03-07T08:07:15;99709.84;;;1.95;100.00
71907;BME280;59781;52.090;5.030;2023-03-07T08:09:40;99707.72;;;2.09;100.00
71907;BME280;59781;52.090;5.030;2023-03-07T08:12:10;99706.19;;;1.96;100.00
71907;BME280;59781;52.090;5.030;2023-03-07T08:14:37;99713.44;;;2.04;100.00
71907;BME280;59781;52.090;5.030;2023-03-07T08:17:03;99712.63;;;1.94;100.00
71907;BME280;59781;52.090;5.030;2023-03-07T08:19:29;99709.03;;;2.32;100.00
71907;BME280;59781;52.090;5.030;2023-03-07T08:21:55;99718.09;;;1.92;100.00
71907;BME280;59781;52.090;5.030;2023-03-07T08:24:20;99717.50;;;2.08;100.00
71907;BME280;59781;52.090;5.030;2023-03-07T08:26:46;99717.16;;;2.58;100.00
71907;BME280;59781;52.090;5.030;2023-03-07T08:29:12;99706.56;;;2.21;100.00
71907;BME280;59781;52.090;5.030;2023-03-07T08:31:38;99716.38;;;2.11;100.00
71907;BME280;59781;52.090;5.030;2023-03-07T08:34:03;99701.50;;;2.82;100.00
71907;BME280;59781;52.090;5.030;2023-03-07T08:36:29;99698.66;;;2.66;100.00
71907;BME280;59781;52.090;5.030;2023-03-07T08:38:55;99696.91;;;2.57;100.00
71907;BME280;59781;52.090;5.030;2023-03-07T08:41:21;99696.94;;;2.93;100.00
71907;BME280;59781;52.090;5.030;2023-03-07T08:43:47;99693.22;;;3.03;100.00
71907;BME280;59781;52.090;5.030;2023-03-07T08:46:14;99691.53;;;2.84;100.00
71907;BME280;59781;52.090;5.030;2023-03-07T08:48:39;99702.31;;;2.38;100.00
71907;BME280;59781;52.090;5.030;2023-03-07T08:51:08;99712.06;;;2.47;100.00
71907;BME280;59781;52.090;5.030;2023-03-07T08:53:36;99704.00;;;2.84;100.00
71907;BME280;59781;52.090;5.030;2023-03-07T08:56:06;99701.69;;;2.71;100.00
71907;BME280;59781;52.090;5.030;2023-03-07T08:58:43;99701.81;;;2.97;100.00
71907;BME280;59781;52.090;5.030;2023-03-07T09:01:10;99699.06;;;2.89;100.00
71907;BME280;59781;52.090;5.030;2023-03-07T09:03:37;99700.88;;;2.71;100.00
71907;BME280;59781;52.090;5.030;2023-03-07T09:06:04;99709.94;;;2.50;100.00
71907;BME280;59781;52.090;5.030;2023-03-07T09:08:31;99703.53;;;3.16;100.00
71907;BME280;59781;52.090;5.030;2023-03-07T09:11:01;99707.88;;;2.90;100.00
71907;BME280;59781;52.090;5.030;2023-03-07T09:13:29;99707.31;;;2.41;100.00
71907;BME280;59781;52.090;5.030;2023-03-07T09:15:55;99710.50;;;3.17;100.00
71907;BME280;59781;52.090;5.030;2023-03-07T09:18:21;99703.59;;;3.06;100.00
71907;BME280;59781;52.090;5.030;2023-03-07T09:20:47;99704.13;;;3.28;100.00
71907;BME280;59781;52.090;5.030;2023-03-07T09:23:13;99695.50;;;3.34;100.00
71907;BME280;59781;52.090;5.030;2023-03-07T09:25:38;99706.31;;;3.94;100.00
71907;BME280;59781;52.090;5.030;2023-03-07T09:28:05;99697.56;;;3.40;100.00
71907;BME280;59781;52.090;5.030;2023-03-07T09:30:31;99709.56;;;3.62;100.00
71907;BME280;59781;52.090;5.030;2023-03-07T09:32:56;99703.28;;;3.89;100.00
71907;BME280;59781;52.090;5.030;2023-03-07T09:35:23;99704.94;;;3.64;100.00
71907;BME280;59781;52.090;5.030;2023-03-07T09:37:50;99713.97;;;3.71;100.00
71907;BME280;59781;52.090;5.030;2023-03-07T09:40:20;99717.00;;;3.76;100.00
71907;BME280;59781;52.090;5.030;2023-03-07T09:46:23;99706.53;;;3.83;100.00
71907;BME280;59781;52.090;5.030;2023-03-07T09:48:59;99704.50;;;4.02;100.00
71907;BME280;59781;52.090;5.030;2023-03-07T09:51:43;99710.38;;;4.06;100.00
71907;BME280;59781;52.090;5.030;2023-03-07T09:54:20;99699.34;;;4.27;100.00
71907;BME280;59781;52.090;5.030;2023-03-07T09:56:56;99705.09;;;4.14;100.00
71907;BME280;59781;52.090;5.030;2023-03-07T09:59:33;99700.19;;;4.01;100.00
71907;BME280;59781;52.090;5.030;2023-03-07T10:07:45;99704.94;;;4.16;100.00
71907;BME280;59781;52.090;5.030;2023-03-07T10:10:24;99698.06;;;3.61;100.00
71907;BME280;59781;52.090;5.030;2023-03-07T10:16:02;99704.19;;;3.80;100.00
71907;BME280;59781;52.090;5.030;2023-03-07T10:24:40;99704.94;;;4.16;100.00
71907;BME280;59781;52.090;5.030;2023-03-07T10:27:25;99707.78;;;4.48;100.00
71907;BME280;59781;52.090;5.030;2023-03-07T10:29:57;99699.50;;;3.99;100.00
71907;BME280;59781;52.090;5.030;2023-03-07T10:35:18;99712.41;;;4.12;100.00
71907;BME280;59781;52.090;5.030;2023-03-07T10:37:50;99713.25;;;3.87;100.00
71907;BME280;59781;52.090;5.030;2023-03-07T10:42:56;99720.16;;;3.36;100.00
71907;BME280;59781;52.090;5.030;2023-03-07T10:45:28;99727.69;;;3.05;100.00
71907;BME280;59781;52.090;5.030;2023-03-07T10:47:58;99722.50;;;3.39;100.00
71907;BME280;59781;52.090;5.030;2023-03-07T10:50:40;99730.47;;;3.03;100.00
71907;BME280;59781;52.090;5.030;2023-03-07T10:53:34;99721.91;;;3.09;100.00
71907;BME280;59781;52.090;5.030;2023-03-07T10:56:16;99731.25;;;2.96;100.00
71907;BME280;59781;52.090;5.030;2023-03-07T10:59:06;99735.31;;;3.35;100.00
71907;BME280;59781;52.090;5.030;2023-03-07T11:01:36;99733.06;;;3.66;100.00
71907;BME280;59781;52.090;5.030;2023-03-07T11:04:22;99728.09;;;3.71;100.00
71907;BME280;59781;52.090;5.030;2023-03-07T11:06:52;99733.09;;;3.92;100.00
71907;BME280;59781;52.090;5.030;2023-03-07T11:09:28;99737.75;;;3.72;100.00
71907;BME280;59781;52.090;5.030;2023-03-07T11:14:45;99738.56;;;3.29;100.00
71907;BME280;59781;52.090;5.030;2023-03-07T11:17:42;99739.00;;;3.42;100.00
71907;BME280;59781;52.090;5.030;2023-03-07T11:20:48;99734.81;;;3.76;100.00
71907;BME280;59781;52.090;5.030;2023-03-07T11:25:53;99730.09;;;3.69;100.00
71907;BME280;59781;52.090;5.030;2023-03-07T11:28:29;99727.91;;;3.91;100.00
71907;BME280;59781;52.090;5.030;2023-03-07T11:31:22;99731.09;;;4.20;100.00
71907;BME280;59781;52.090;5.030;2023-03-07T11:36:55;99728.69;;;3.83;100.00
71907;BME280;59781;52.090;5.030;2023-03-07T11:42:43;99728.47;;;3.94;100.00
71907;BME280;59781;52.090;5.030;2023-03-07T11:55:10;99741.88;;;3.85;100.00
71907;BME280;59781;52.090;5.030;2023-03-07T12:01:09;99751.94;;;2.65;100.00
71907;BME280;59781;52.090;5.030;2023-03-07T12:13:10;99760.94;;;2.54;100.00
71907;BME280;59781;52.090;5.030;2023-03-07T12:22:22;99775.06;;;2.27;100.00
71907;BME280;59781;52.090;5.030;2023-03-07T12:25:03;99765.97;;;2.20;100.00
71907;BME280;59781;52.090;5.030;2023-03-07T12:27:48;99774.44;;;2.43;100.00
71907;BME280;59781;52.090;5.030;2023-03-07T12:33:28;99767.56;;;2.50;100.00
71907;BME280;59781;52.090;5.030;2023-03-07T12:38:50;99764.84;;;2.59;100.00
71907;BME280;59781;52.090;5.030;2023-03-07T12:44:39;99774.09;;;2.55;100.00
71907;BME280;59781;52.090;5.030;2023-03-07T12:50:39;99767.28;;;2.80;100.00
71907;BME280;59781;52.090;5.030;2023-03-07T12:53:32;99761.72;;;3.19;100.00
71907;BME280;59781;52.090;5.030;2023-03-07T12:56:31;99757.69;;;2.97;100.00
71907;BME280;59781;52.090;5.030;2023-03-07T12:59:13;99766.50;;;2.70;100.00
71907;BME280;59781;52.090;5.030;2023-03-07T13:01:46;99768.25;;;2.79;100.00
71907;BME280;59781;52.090;5.030;2023-03-07T13:04:34;99767.53;;;2.87;100.00
71907;BME280;59781;52.090;5.030;2023-03-07T13:07:23;99767.50;;;2.59;100.00
71907;BME280;59781;52.090;5.030;2023-03-07T13:09:56;99772.16;;;2.57;100.00
71907;BME280;59781;52.090;5.030;2023-03-07T13:12:33;99768.81;;;2.46;100.00
71907;BME280;59781;52.090;5.030;2023-03-07T13:15:04;99763.59;;;2.54;100.00
71907;BME280;59781;52.090;5.030;2023-03-07T13:28:02;99771.75;;;2.80;100.00
71907;BME280;59781;52.090;5.030;2023-03-07T13:30:32;99767.69;;;3.03;100.00
71907;BME280;59781;52.090;5.030;2023-03-07T13:33:25;99768.34;;;3.15;100.00
71907;BME280;59781;52.090;5.030;2023-03-07T13:35:57;99768.59;;;2.94;100.00
71907;BME280;59781;52.090;5.030;2023-03-07T13:38:40;99764.88;;;2.87;100.00
71907;BME280;59781;52.090;5.030;2023-03-07T13:41:12;99769.19;;;2.88;100.00
71907;BME280;59781;52.090;5.030;2023-03-07T13:44:00;99770.81;;;2.99;100.00
71907;BME280;59781;52.090;5.030;2023-03-07T13:46:30;99777.19;;;2.88;100.00
71907;BME280;59781;52.090;5.030;2023-03-07T13:49:38;99779.22;;;2.94;100.00
71907;BME280;59781;52.090;5.030;2023-03-07T13:52:29;99779.06;;;2.78;100.00
71907;BME280;59781;52.090;5.030;2023-03-07T13:54:59;99779.16;;;2.86;100.00
71907;BME280;59781;52.090;5.030;2023-03-07T13:57:34;99780.81;;;2.87;100.00
71907;BME280;59781;52.090;5.030;2023-03-07T14:00:21;99784.13;;;2.99;100.00
71907;BME280;59781;52.090;5.030;2023-03-07T14:02:51;99792.66;;;2.65;100.00
71907;BME280;59781;52.090;5.030;2023-03-07T14:05:19;99790.94;;;2.74;100.00
71907;BME280;59781;52.090;5.030;2023-03-07T14:07:48;99797.47;;;2.89;100.00
71907;BME280;59781;52.090;5.030;2023-03-07T14:10:22;99792.53;;;2.94;100.00
71907;BME280;59781;52.090;5.030;2023-03-07T14:13:08;99799.28;;;2.88;100.00
71907;BME280;59781;52.090;5.030;2023-03-07T14:16:20;99813.16;;;2.82;100.00
71907;BME280;59781;52.090;5.030;2023-03-07T14:19:01;99805.28;;;2.91;100.00
71907;BME280;59781;52.090;5.030;2023-03-07T14:22:04;99806.97;;;2.92;100.00
71907;BME280;59781;52.090;5.030;2023-03-07T14:25:13;99802.09;;;2.87;100.00
71907;BME280;59781;52.090;5.030;2023-03-07T14:30:19;99800.13;;;2.89;100.00
71907;BME280;59781;52.090;5.030;2023-03-07T14:32:46;99795.75;;;2.98;100.00
71907;BME280;59781;52.090;5.030;2023-03-07T14:35:11;99792.94;;;2.99;100.00
71907;BME280;59781;52.090;5.030;2023-03-07T14:37:41;99787.50;;;3.19;100.00
71907;BME280;59781;52.090;5.030;2023-03-07T14:40:29;99784.47;;;3.31;100.00
71907;BME280;59781;52.090;5.030;2023-03-07T14:43:38;99774.31;;;3.44;100.00
71907;BME280;59781;52.090;5.030;2023-03-07T14:52:29;99769.13;;;3.79;100.00
71907;BME280;59781;52.090;5.030;2023-03-07T14:54:59;99782.50;;;3.33;100.00
71907;BME280;59781;52.090;5.030;2023-03-07T14:57:34;99782.56;;;3.41;100.00
71907;BME280;59781;52.090;5.030;2023-03-07T15:03:02;99789.34;;;3.36;100.00
71907;BME280;59781;52.090;5.030;2023-03-07T15:16:50;99769.72;;;3.72;100.00
71907;BME280;59781;52.090;5.030;2023-03-07T15:19:36;99776.34;;;3.51;100.00
71907;BME280;59781;52.090;5.030;2023-03-07T15:22:15;99784.09;;;3.80;100.00
71907;BME280;59781;52.090;5.030;2023-03-07T15:24:49;99781.16;;;3.65;100.00